Time;durP1;ratioP1;P1;durP2;ratioP2;P2;SDS_P1;SDS_P2;PMS_P1;PMS_P2;Temp;Humidity;BMP_temperature;BMP_pressure;BME280_temperature;BME280_humidity;BME280_pressure;Samples;Min_cycle;Max_cycle;Signal;HPM_P1;HPM_P2
2023/04/04 00:01:32;;;;;;;10.23;5.28;;;102.60;2227.20;;;;;;5049198;28;20123;-69
2023/04/04 00:03:58;;;;;;;15.00;6.78;;;102.60;2227.20;;;;;;5048590;28;20100;-63
2023/04/04 00:06:23;;;;;;;13.05;5.43;;;102.70;2227.20;;;;;;5049125;28;20532;-61
2023/04/04 00:08:49;;;;;;;10.80;6.63;;;102.70;2227.20;;;;;;5031714;28;20542;-73
2023/04/04 00:11:15;;;;;;;14.57;6.13;;;102.60;2227.20;;;;;;5029237;28;20040;-62
2023/04/04 00:13:40;;;;;;;10.50;6.05;;;102.60;2227.20;;;;;;5028823;28;20380;-67
2023/04/04 00:16:06;;;;;;;16.73;8.15;;;102.40;2227.20;;;;;;5043632;28;20490;-59
2023/04/04 00:18:32;;;;;;;12.05;6.18;;;102.40;2227.20;;;;;;5035365;28;20047;-72
2023/04/04 00:20:58;;;;;;;12.70;11.40;;;102.50;2227.20;;;;;;5032825;28;20069;-60
2023/04/04 00:23:24;;;;;;;12.32;6.47;;;102.40;2227.20;;;;;;5037336;28;20013;-73
2023/04/04 00:25:53;;;;;;;10.48;6.43;;;77.60;2227.20;;;;;;5051437;28;20116;-59
2023/04/04 00:28:20;;;;;;;9.73;5.90;;;77.60;2227.20;;;;;;5052162;28;20028;-59
2023/04/04 00:30:46;;;;;;;12.02;7.20;;;77.50;2227.20;;;;;;5043178;28;20028;-60
2023/04/04 00:33:12;;;;;;;10.05;5.85;;;77.50;2227.20;;;;;;5032237;28;20028;-72
2023/04/04 00:35:38;;;;;;;22.05;13.10;;;77.60;2227.20;;;;;;5032550;28;20476;-59
2023/04/04 00:38:04;;;;;;;10.88;7.32;;;77.50;2227.20;;;;;;5032471;28;20044;-68
2023/04/04 00:40:30;;;;;;;30.73;18.13;;;77.50;2227.20;;;;;;5032239;28;20029;-61
2023/04/04 00:42:56;;;;;;;28.67;13.82;;;77.60;2227.20;;;;;;5032823;28;20032;-59
2023/04/04 00:45:22;;;;;;;14.80;9.65;;;77.60;2227.20;;;;;;5032518;28;20025;-61
2023/04/04 00:47:49;;;;;;;16.30;9.80;;;77.40;2227.20;;;;;;5047673;28;20029;-60
2023/04/04 00:50:15;;;;;;;16.40;10.68;;;77.30;2227.20;;;;;;5052305;28;20033;-59
2023/04/04 00:52:41;;;;;;;14.50;7.63;;;77.40;2227.20;;;;;;5052084;28;20120;-59
2023/04/04 00:55:07;;;;;;;17.80;8.95;;;77.40;2227.20;;;;;;5051979;28;20514;-59
2023/04/04 00:57:33;;;;;;;8.77;7.80;;;77.40;2227.20;;;;;;5051765;28;20025;-61
2023/04/04 01:00:01;;;;;;;23.02;15.18;;;77.40;2227.20;;;;;;5051633;28;20086;-70
2023/04/04 01:02:27;;;;;;;14.18;10.68;;;77.50;2227.20;;;;;;5051919;28;20391;-61
2023/04/04 01:04:53;;;;;;;10.13;7.88;;;77.40;2227.20;;;;;;5052272;28;20036;-59
2023/04/04 01:07:19;;;;;;;11.63;8.20;;;77.60;2227.20;;;;;;5051730;28;20037;-60
2023/04/04 01:09:44;;;;;;;15.32;9.88;;;77.50;2227.20;;;;;;5051453;28;20585;-59
2023/04/04 01:12:10;;;;;;;11.13;8.48;;;77.50;2227.20;;;;;;5051474;28;20033;-59
2023/04/04 01:14:36;;;;;;;15.43;10.38;;;77.50;2227.20;;;;;;5051552;28;20048;-68
2023/04/04 01:17:02;;;;;;;10.38;8.40;;;77.60;2227.20;;;;;;5051333;28;20029;-59
2023/04/04 01:19:36;;;;;;;11.65;8.27;;;77.20;2227.20;;;;;;5051504;28;20027;-59
2023/04/04 01:22:02;;;;;;;14.57;9.48;;;77.30;2227.20;;;;;;5051496;28;20037;-59
2023/04/04 01:24:32;;;;;;;13.32;8.15;;;77.30;2227.20;;;;;;5051547;28;20418;-61
2023/04/04 01:26:59;;;;;;;17.08;9.20;;;77.10;2227.20;;;;;;5050373;28;20025;-60
2023/04/04 01:29:26;;;;;;;15.00;10.98;;;77.20;2227.20;;;;;;5051626;28;20467;-60
2023/04/04 01:32:47;;;;;;;18.75;13.40;;;77.20;2227.20;;;;;;5051376;28;20049;-60
2023/04/04 01:35:20;;;;;;;14.27;9.60;;;77.20;2227.20;;;;;;5048644;28;20044;-60
2023/04/04 01:38:14;;;;;;;15.87;10.33;;;77.50;2227.20;;;;;;5048917;28;20044;-60
2023/04/04 01:40:54;;;;;;;14.38;10.23;;;77.20;2227.20;;;;;;5038901;28;20047;-60
2023/04/04 01:43:20;;;;;;;12.68;8.85;;;77.30;2227.20;;;;;;5048501;28;20086;-59
2023/04/04 01:45:46;;;;;;;13.82;9.63;;;77.30;2227.20;;;;;;5048646;28;20456;-60
2023/04/04 01:48:11;;;;;;;11.15;9.25;;;77.20;2227.20;;;;;;5048077;28;20438;-59
2023/04/04 01:50:37;;;;;;;11.93;9.70;;;77.10;2227.20;;;;;;5048503;28;20087;-60
2023/04/04 01:53:03;;;;;;;14.95;10.27;;;77.00;2227.20;;;;;;5048779;28;20025;-63
2023/04/04 01:55:29;;;;;;;10.75;8.25;;;76.90;2227.20;;;;;;5048777;28;20053;-59
2023/04/04 01:57:54;;;;;;;12.77;9.75;;;76.90;2227.20;;;;;;5048523;28;20434;-59
2023/04/04 02:00:20;;;;;;;14.73;11.05;;;76.90;2227.20;;;;;;5048194;28;20127;-59
2023/04/04 02:02:46;;;;;;;11.50;9.05;;;76.80;2227.20;;;;;;5048308;28;20053;-60
2023/04/04 02:05:12;;;;;;;11.95;9.18;;;76.90;2227.20;;;;;;5048669;28;20037;-59
2023/04/04 02:07:38;;;;;;;12.85;10.32;;;76.90;2227.20;;;;;;5048103;28;20104;-60
2023/04/04 02:10:04;;;;;;;12.20;8.80;;;77.00;2227.20;;;;;;5048872;28;20128;-64
2023/04/04 02:12:29;;;;;;;11.35;7.82;;;76.90;2227.20;;;;;;5050705;28;20134;-61
2023/04/04 02:14:55;;;;;;;9.95;7.70;;;76.80;2227.20;;;;;;5050671;28;20539;-60
2023/04/04 02:17:21;;;;;;;14.57;7.18;;;76.80;2227.20;;;;;;5050399;28;20025;-60
2023/04/04 02:19:46;;;;;;;10.45;7.68;;;52.00;2227.20;;;;;;5050642;28;20039;-60
2023/04/04 02:22:12;;;;;;;11.48;8.98;;;52.10;2227.20;;;;;;5050283;28;20120;-59
2023/04/04 02:24:38;;;;;;;11.23;8.05;;;52.00;2227.20;;;;;;5050473;28;20537;-60
2023/04/04 02:27:03;;;;;;;12.27;9.15;;;51.90;2227.20;;;;;;5050136;28;20544;-58
2023/04/04 02:29:29;;;;;;;12.57;9.50;;;51.90;2227.20;;;;;;5050186;28;20032;-60
2023/04/04 02:31:56;;;;;;;13.02;8.77;;;;;;;;;;5050409;28;20064;-59
2023/04/04 02:34:22;;;;;;;12.95;9.57;;;76.80;2227.20;;;;;;5050554;28;20032;-59
2023/04/04 02:36:47;;;;;;;12.23;9.30;;;52.00;2227.20;;;;;;5049806;28;20052;-61
2023/04/04 02:39:13;;;;;;;11.18;7.53;;;52.00;2227.20;;;;;;5050244;28;20068;-59
2023/04/04 02:41:40;;;;;;;13.27;8.73;;;52.00;2227.20;;;;;;5049370;28;20502;-59
2023/04/04 02:44:07;;;;;;;12.00;8.55;;;52.10;2227.20;;;;;;5049867;28;20471;-59
2023/04/04 02:46:34;;;;;;;12.77;9.27;;;52.00;2227.20;;;;;;5050177;28;20045;-59
2023/04/04 02:49:00;;;;;;;12.27;8.02;;;51.90;2227.20;;;;;;5050314;28;20028;-59
2023/04/04 02:51:26;;;;;;;11.32;7.63;;;51.90;2227.20;;;;;;5050077;28;20433;-59
2023/04/04 02:53:52;;;;;;;9.52;7.25;;;52.10;2227.20;;;;;;5049891;28;20026;-59
2023/04/04 02:56:18;;;;;;;12.48;7.90;;;52.10;2227.20;;;;;;5049731;28;20029;-60
2023/04/04 02:58:43;;;;;;;10.70;7.65;;;52.10;2227.20;;;;;;5049566;28;20025;-59
2023/04/04 03:01:09;;;;;;;27.35;17.83;;;52.10;2227.20;;;;;;5049020;28;20033;-71
2023/04/04 03:03:35;;;;;;;10.25;7.68;;;52.00;2227.20;;;;;;5049738;28;20060;-59
2023/04/04 03:06:01;;;;;;;9.10;6.78;;;52.00;2227.20;;;;;;5049344;28;20112;-59
2023/04/04 03:08:27;;;;;;;13.20;10.77;;;51.90;2227.20;;;;;;5048854;28;20028;-59
2023/04/04 03:10:53;;;;;;;10.05;8.13;;;51.90;2227.20;;;;;;5049160;28;20028;-60
2023/04/04 03:13:18;;;;;;;23.60;15.98;;;52.00;2227.20;;;;;;5049299;28;20108;-60
2023/04/04 03:15:44;;;;;;;13.52;9.60;;;52.00;2227.20;;;;;;5049048;28;20021;-60
2023/04/04 03:18:10;;;;;;;16.80;10.80;;;52.00;2227.20;;;;;;5049024;28;20435;-60
2023/04/04 03:20:36;;;;;;;10.10;7.50;;;51.90;2227.20;;;;;;5049408;28;20037;-58
2023/04/04 03:23:02;;;;;;;8.52;6.18;;;51.90;2227.20;;;;;;5049093;28;20040;-59
2023/04/04 03:25:27;;;;;;;9.93;6.93;;;51.80;2227.20;;;;;;5049415;28;20029;-59
2023/04/04 03:27:53;;;;;;;8.63;6.05;;;51.80;2227.20;;;;;;5049633;28;20029;-60
2023/04/04 03:30:19;;;;;;;8.43;6.47;;;51.90;2227.20;;;;;;5045950;28;20033;-59
2023/04/04 03:32:44;;;;;;;9.50;6.95;;;51.60;2227.20;;;;;;5029307;28;20514;-70
2023/04/04 03:35:10;;;;;;;11.98;7.95;;;51.60;2227.20;;;;;;5039497;28;20068;-60
2023/04/04 03:37:36;;;;;;;8.80;5.50;;;51.50;2227.20;;;;;;5048848;28;20407;-59
2023/04/04 03:40:02;;;;;;;7.95;5.63;;;51.50;2227.20;;;;;;5048939;28;20116;-62
2023/04/04 03:42:33;;;;;;;18.52;12.13;;;51.50;2227.20;;;;;;5048579;28;20454;-60
2023/04/04 03:44:59;;;;;;;8.00;5.95;;;51.50;2227.20;;;;;;5048712;28;20029;-59
2023/04/04 03:47:25;;;;;;;8.25;6.32;;;51.40;1996.80;;;;;;5027519;28;20022;-57
2023/04/04 03:49:51;;;;;;;8.95;6.15;;;51.40;2227.20;;;;;;5030073;28;20036;-59
2023/04/04 03:52:17;;;;;;;10.15;6.32;;;51.50;1945.60;;;;;;5049055;28;20033;-57
2023/04/04 03:54:43;;;;;;;7.47;5.43;;;51.60;2227.20;;;;;;5048911;28;20099;-59
2023/04/04 03:57:09;;;;;;;8.50;6.15;;;51.60;2227.20;;;;;;5048865;28;20025;-56
2023/04/04 03:59:35;;;;;;;9.15;6.97;;;51.60;2227.20;;;;;;5048400;28;20392;-57
2023/04/04 04:02:00;;;;;;;7.97;6.03;;;51.60;2227.20;;;;;;5048393;28;20025;-57
2023/04/04 04:04:26;;;;;;;12.63;6.82;;;51.60;2227.20;;;;;;5049022;28;20075;-57
2023/04/04 04:06:52;;;;;;;9.65;6.85;;;51.60;2227.20;;;;;;5048765;28;20082;-57
2023/04/04 04:09:17;;;;;;;10.80;6.93;;;51.60;2227.20;;;;;;5047540;28;20044;-57
2023/04/04 04:11:43;;;;;;;9.43;7.22;;;51.70;2227.20;;;;;;5049018;28;20025;-69
2023/04/04 04:14:09;;;;;;;9.95;8.63;;;51.60;2227.20;;;;;;5048416;28;20037;-60
2023/04/04 04:16:38;;;;;;;10.10;8.25;;;51.70;2227.20;;;;;;5048869;28;20025;-56
2023/04/04 04:19:04;;;;;;;11.52;7.45;;;51.60;2227.20;;;;;;5048851;28;20023;-57
2023/04/04 04:21:30;;;;;;;11.52;9.00;;;51.50;2227.20;;;;;;5048569;28;20045;-58
2023/04/04 04:23:55;;;;;;;10.50;6.95;;;51.50;2227.20;;;;;;5022261;28;20017;-57
2023/04/04 04:26:21;;;;;;;10.00;7.47;;;51.40;2227.20;;;;;;5048905;28;20487;-57
2023/04/04 04:28:47;;;;;;;10.13;7.25;;;51.40;2227.20;;;;;;5048264;28;20440;-58
2023/04/04 04:31:13;;;;;;;8.77;7.38;;;51.60;2227.20;;;;;;5048611;28;20064;-58
2023/04/04 04:33:38;;;;;;;10.55;7.93;;;51.50;2227.20;;;;;;5048409;28;20056;-58
2023/04/04 04:36:05;;;;;;;9.70;6.97;;;51.60;2227.20;;;;;;5048334;28;20111;-58
2023/04/04 04:38:32;;;;;;;11.45;7.22;;;51.60;2227.20;;;;;;5022638;28;20029;-57
2023/04/04 04:40:57;;;;;;;9.55;7.70;;;51.60;2227.20;;;;;;5048076;28;20033;-57
2023/04/04 04:43:23;;;;;;;15.20;7.47;;;51.50;2227.20;;;;;;5022279;28;20029;-57
2023/04/04 04:45:49;;;;;;;9.25;7.63;;;51.50;2227.20;;;;;;5048481;28;20033;-58
2023/04/04 04:48:16;;;;;;;10.88;8.18;;;51.40;2227.20;;;;;;5046044;28;20033;-56
2023/04/04 04:50:46;;;;;;;8.50;7.20;;;51.50;2227.20;;;;;;5028483;28;20040;-57
2023/04/04 04:53:15;;;;;;;10.10;7.30;;;51.40;2227.20;;;;;;5044021;28;20029;-57
2023/04/04 04:55:41;;;;;;;11.70;8.13;;;51.40;2227.20;;;;;;5048296;28;20021;-57
2023/04/04 04:58:09;;;;;;;10.48;7.47;;;51.50;2227.20;;;;;;5048325;28;20074;-58
2023/04/04 05:00:36;;;;;;;9.85;7.00;;;51.40;2227.20;;;;;;5049444;28;20036;-59
2023/04/04 05:03:05;;;;;;;9.40;6.82;;;51.60;2227.20;;;;;;5051644;28;20024;-58
2023/04/04 05:05:32;;;;;;;12.98;7.70;;;51.60;2227.20;;;;;;5051810;28;20108;-57
2023/04/04 05:07:58;;;;;;;8.50;5.95;;;51.40;2227.20;;;;;;5052099;28;20055;-59
2023/04/04 05:10:23;;;;;;;8.90;7.18;;;51.40;2227.20;;;;;;5028424;28;20088;-57
2023/04/04 05:12:49;;;;;;;8.90;6.55;;;51.40;2227.20;;;;;;5032250;28;20024;-56
2023/04/04 05:15:15;;;;;;;63.50;29.50;;;51.30;2227.20;;;;;;5027749;28;20075;-56
2023/04/04 05:17:41;;;;;;;508.73;267.42;;;51.40;2227.20;;;;;;5033986;28;20030;-56
2023/04/04 05:20:07;;;;;;;40.25;23.00;;;51.50;2048.00;;;;;;5019432;28;20099;-57
2023/04/04 05:22:33;;;;;;;13.60;8.57;;;51.40;2227.20;;;;;;5023687;28;20379;-56
2023/04/04 05:24:59;;;;;;;14.63;10.65;;;51.50;2227.20;;;;;;5030020;28;20025;-60
2023/04/04 05:27:25;;;;;;;11.18;8.73;;;51.70;2227.20;;;;;;5020956;28;20029;-60
2023/04/04 05:29:50;;;;;;;12.30;8.60;;;51.60;2227.20;;;;;;5034056;28;20494;-57
2023/04/04 05:32:16;;;;;;;16.98;10.60;;;51.60;2227.20;;;;;;5025868;28;20033;-56
2023/04/04 05:34:42;;;;;;;31.08;18.73;;;51.60;2227.20;;;;;;5031079;28;20044;-58
2023/04/04 05:37:08;;;;;;;12.48;9.35;;;51.70;2227.20;;;;;;5032232;28;20132;-57
2023/04/04 05:39:33;;;;;;;14.88;9.60;;;51.60;2227.20;;;;;;5031678;28;20045;-56
2023/04/04 05:41:59;;;;;;;31.95;19.77;;;51.40;2227.20;;;;;;5023780;28;20037;-56
2023/04/04 05:44:25;;;;;;;33.50;25.92;;;51.60;2227.20;;;;;;5029865;28;20025;-56
2023/04/04 05:46:51;;;;;;;17.33;12.73;;;51.50;2227.20;;;;;;5023132;28;20032;-58
2023/04/04 05:49:16;;;;;;;46.92;33.45;;;51.70;2227.20;;;;;;5021556;28;20034;-57
2023/04/04 05:51:42;;;;;;;10.13;7.72;;;51.80;1971.20;;;;;;5037846;28;20487;-58
2023/04/04 05:54:08;;;;;;;8.73;7.00;;;51.70;2227.20;;;;;;5050561;28;20101;-59
2023/04/04 05:56:34;;;;;;;7.90;5.88;;;51.60;2227.20;;;;;;5051243;28;20028;-57
2023/04/04 05:59:00;;;;;;;8.57;6.28;;;51.50;2227.20;;;;;;5050765;28;20025;-62
2023/04/04 06:01:26;;;;;;;9.20;7.20;;;51.20;2227.20;;;;;;5051068;28;20383;-58
2023/04/04 06:03:52;;;;;;;12.73;10.23;;;51.20;2227.20;;;;;;5050428;28;20028;-58
2023/04/04 06:06:17;;;;;;;7.88;5.85;;;51.30;2227.20;;;;;;5051194;28;20032;-58
2023/04/04 06:08:43;;;;;;;7.35;5.65;;;51.30;2227.20;;;;;;5037820;28;20017;-59
2023/04/04 06:11:09;;;;;;;10.27;6.75;;;51.30;2227.20;;;;;;5050870;28;20367;-66
2023/04/04 06:13:35;;;;;;;9.48;7.07;;;51.30;2227.20;;;;;;5049827;28;20040;-57
2023/04/04 06:16:01;;;;;;;9.68;6.50;;;51.30;2227.20;;;;;;5050487;28;20021;-58
2023/04/04 06:18:27;;;;;;;10.70;5.82;;;51.40;2227.20;;;;;;5050544;28;20130;-58
2023/04/04 06:20:53;;;;;;;8.30;6.00;;;51.40;2227.20;;;;;;5050524;28;20043;-58
2023/04/04 06:23:18;;;;;;;12.00;9.52;;;51.40;2227.20;;;;;;5049984;28;20025;-58
2023/04/04 06:25:44;;;;;;;10.93;6.78;;;51.30;2227.20;;;;;;5050798;28;20375;-58
2023/04/04 06:28:12;;;;;;;11.73;6.70;;;51.30;2227.20;;;;;;5050040;28;20107;-58
2023/04/04 06:30:38;;;;;;;9.88;7.05;;;51.30;2150.40;;;;;;5050451;28;20485;-60
2023/04/04 06:33:04;;;;;;;12.57;9.18;;;51.40;2227.20;;;;;;5049657;28;20032;-58
2023/04/04 06:35:30;;;;;;;8.73;6.65;;;51.30;2227.20;;;;;;5050242;28;20074;-58
2023/04/04 06:37:56;;;;;;;8.60;6.53;;;51.20;2227.20;;;;;;5050168;28;20049;-58
2023/04/04 06:40:22;;;;;;;8.52;6.28;;;26.50;2201.60;;;;;;5050237;28;20043;-58
2023/04/04 06:42:52;;;;;;;10.30;6.70;;;26.50;2201.60;;;;;;5049900;28;20031;-58
2023/04/04 06:45:18;;;;;;;8.93;6.88;;;26.50;2201.60;;;;;;5049928;28;20036;-63
2023/04/04 06:47:45;;;;;;;10.48;7.95;;;51.30;2227.20;;;;;;5042511;28;20038;-58
2023/04/04 06:50:11;;;;;;;9.13;6.75;;;51.30;2227.20;;;;;;5030004;28;20025;-57
2023/04/04 06:52:37;;;;;;;10.38;6.60;;;51.30;2227.20;;;;;;5031609;28;20099;-57
2023/04/04 06:55:03;;;;;;;11.23;9.27;;;51.50;2227.20;;;;;;5040903;28;20021;-58
2023/04/04 06:57:29;;;;;;;12.38;6.63;;;51.60;2227.20;;;;;;5029838;28;20032;-69
2023/04/04 06:59:54;;;;;;;9.68;7.25;;;51.60;2227.20;;;;;;5036610;28;20029;-57
2023/04/04 07:02:20;;;;;;;9.68;7.05;;;51.50;2227.20;;;;;;5049233;28;20037;-63
2023/04/04 07:04:46;;;;;;;9.13;6.72;;;51.50;2227.20;;;;;;5049780;28;20032;-69
2023/04/04 07:07:11;;;;;;;12.43;8.40;;;51.50;2227.20;;;;;;5049671;28;20032;-58
2023/04/04 07:09:37;;;;;;;9.43;7.25;;;51.60;2227.20;;;;;;5049587;28;20059;-68
2023/04/04 07:12:03;;;;;;;13.35;9.02;;;51.50;2227.20;;;;;;5049437;28;20036;-64
2023/04/04 07:14:29;;;;;;;16.75;12.55;;;51.50;1971.20;;;;;;5049008;28;20028;-63
2023/04/04 07:16:54;;;;;;;11.43;7.80;;;51.60;2227.20;;;;;;5038100;28;20033;-63
2023/04/04 07:19:27;;;;;;;10.80;6.95;;;51.70;2227.20;;;;;;5047869;28;20064;-69
2023/04/04 07:21:54;;;;;;;8.80;6.90;;;51.80;2227.20;;;;;;5049871;28;20056;-68
2023/04/04 07:24:20;;;;;;;9.68;7.60;;;51.70;1843.20;;;;;;5048555;28;20025;-58
2023/04/04 07:26:46;;;;;;;8.18;6.60;;;51.80;2227.20;;;;;;5049662;28;20064;-64
2023/04/04 07:29:12;;;;;;;14.35;10.63;;;51.70;2022.40;;;;;;5049013;28;20122;-61
2023/04/04 07:31:38;;;;;;;12.45;9.43;;;51.80;2227.20;;;;;;5036077;28;20033;-59
2023/04/04 07:34:03;;;;;;;12.18;7.68;;;51.90;2227.20;;;;;;5049160;28;20435;-63
2023/04/04 07:36:30;;;;;;;12.80;8.50;;;51.80;2227.20;;;;;;5048245;28;20052;-62
2023/04/04 07:38:56;;;;;;;10.23;7.47;;;51.80;2227.20;;;;;;5036455;28;20037;-61
2023/04/04 07:41:22;;;;;;;11.00;7.78;;;51.80;1971.20;;;;;;5048110;28;20123;-62
2023/04/04 07:43:48;;;;;;;11.40;9.05;;;51.70;2227.20;;;;;;5035803;28;20109;-61
2023/04/04 07:46:14;;;;;;;13.77;9.32;;;51.80;2227.20;;;;;;5049494;28;20052;-63
2023/04/04 07:48:40;;;;;;;13.20;10.50;;;52.10;2227.20;;;;;;5032191;28;20018;-62
2023/04/04 07:51:06;;;;;;;9.75;8.13;;;52.10;2227.20;;;;;;5029196;28;20044;-62
2023/04/04 07:53:32;;;;;;;28.90;15.50;;;52.10;2227.20;;;;;;5045769;28;20033;-61
2023/04/04 07:55:58;;;;;;;11.70;7.20;;;52.10;2022.40;;;;;;5048731;28;20126;-61
2023/04/04 07:58:23;;;;;;;12.73;9.57;;;52.10;2227.20;;;;;;5049127;28;20029;-61
2023/04/04 08:00:49;;;;;;;11.18;8.25;;;52.10;1996.80;;;;;;5048453;28;20032;-61
2023/04/04 08:03:16;;;;;;;9.90;7.10;;;52.00;2227.20;;;;;;5049042;28;20065;-62
2023/04/04 08:05:42;;;;;;;10.40;7.65;;;76.80;2227.20;;;;;;5048957;28;20041;-62
2023/04/04 08:08:08;;;;;;;16.13;14.48;;;52.10;2227.20;;;;;;5048712;28;20036;-64
2023/04/04 08:10:33;;;;;;;10.82;8.40;;;76.80;2227.20;;;;;;5049062;28;20029;-62
2023/04/04 08:12:59;;;;;;;18.88;13.68;;;76.90;2227.20;;;;;;5048729;28;20471;-62
2023/04/04 08:15:25;;;;;;;9.68;7.35;;;77.10;2227.20;;;;;;5048820;28;20041;-62
2023/04/04 08:17:50;;;;;;;14.57;10.88;;;77.20;2227.20;;;;;;5039730;28;20018;-62
2023/04/04 08:20:16;;;;;;;10.57;7.85;;;77.10;2227.20;;;;;;5028595;28;20045;-61
2023/04/04 08:22:42;;;;;;;10.48;6.72;;;77.40;2227.20;;;;;;5042028;28;20021;-61
2023/04/04 08:25:09;;;;;;;12.70;8.73;;;77.20;2227.20;;;;;;5047737;28;20032;-65
2023/04/04 08:27:37;;;;;;;11.65;9.82;;;77.20;2227.20;;;;;;5047996;28;20029;-66
2023/04/04 08:30:04;;;;;;;39.20;23.17;;;77.40;2227.20;;;;;;5047756;28;20387;-58
2023/04/04 08:32:30;;;;;;;14.82;11.93;;;77.50;2227.20;;;;;;5047688;28;20033;-63
2023/04/04 08:34:56;;;;;;;15.05;8.85;;;77.70;2227.20;;;;;;5040275;28;20021;-62
2023/04/04 08:37:22;;;;;;;12.20;9.20;;;77.60;2227.20;;;;;;5047035;28;20414;-63
2023/04/04 08:39:48;;;;;;;13.95;9.10;;;102.60;2227.20;;;;;;5052679;28;20017;-64
2023/04/04 08:42:19;;;;;;;18.02;12.18;;;102.70;2227.20;;;;;;5052409;28;20372;-65
2023/04/04 08:44:48;;;;;;;9.60;7.30;;;102.60;2227.20;;;;;;5052441;28;20516;-62
2023/04/04 08:47:15;;;;;;;10.02;7.90;;;102.70;2227.20;;;;;;5052322;28;20067;-62
2023/04/04 08:49:44;;;;;;;12.95;10.18;;;103.00;2227.20;;;;;;5052298;28;20023;-63
2023/04/04 08:52:11;;;;;;;47.75;26.20;;;102.90;2227.20;;;;;;5052492;28;20020;-62
2023/04/04 08:54:39;;;;;;;9.82;7.50;;;102.70;2227.20;;;;;;5052010;28;20028;-62
2023/04/04 08:57:05;;;;;;;15.65;9.15;;;102.70;2227.20;;;;;;5052661;28;20037;-62
2023/04/04 08:59:31;;;;;;;15.77;10.65;;;103.00;2227.20;;;;;;5052049;28;20383;-63
2023/04/04 09:02:14;;;;;;;47.25;26.42;;;103.00;2227.20;;;;;;5052221;28;20097;-63
2023/04/04 09:04:43;;;;;;;42.83;27.15;;;102.90;2227.20;;;;;;5052133;28;20491;-62
2023/04/04 09:07:10;;;;;;;28.90;18.05;;;102.80;2227.20;;;;;;5051301;28;20033;-63
2023/04/04 09:09:37;;;;;;;142.07;96.63;;;103.10;2227.20;;;;;;5052225;28;20086;-62
2023/04/04 09:12:04;;;;;;;19.10;14.15;;;103.30;2227.20;;;;;;5051926;28;20025;-62
2023/04/04 09:14:32;;;;;;;12.82;7.72;;;128.40;2252.80;;;;;;5051675;28;20368;-62
2023/04/04 09:16:57;;;;;;;28.95;19.98;;;128.40;2252.80;;;;;;5051615;28;20107;-64
2023/04/04 09:19:24;;;;;;;52.13;35.60;;;128.60;2252.80;;;;;;5052049;28;20021;-62
2023/04/04 09:21:49;;;;;;;9.48;7.57;;;128.70;2252.80;;;;;;5051162;28;20033;-62
2023/04/04 09:24:16;;;;;;;17.20;11.48;;;128.70;2252.80;;;;;;5051598;28;20036;-65
2023/04/04 09:26:52;;;;;;;33.30;22.52;;;128.60;2252.80;;;;;;5051063;28;20104;-64
2023/04/04 09:29:21;;;;;;;15.38;10.95;;;128.20;2252.80;;;;;;5051441;28;20470;-64
2023/04/04 09:31:48;;;;;;;14.07;10.10;;;128.80;2252.80;;;;;;5051137;28;20032;-64
2023/04/04 09:34:19;;;;;;;9.88;7.05;;;128.90;2252.80;;;;;;5051646;28;20036;-64
2023/04/04 09:36:45;;;;;;;11.60;8.85;;;154.00;2252.80;;;;;;5050799;28;20045;-63
2023/04/04 09:39:15;;;;;;;30.55;19.88;;;154.30;2252.80;;;;;;5051324;28;20124;-64
2023/04/04 09:41:42;;;;;;;37.95;21.88;;;179.20;2252.80;;;;;;5051079;28;20041;-63
2023/04/04 09:44:11;;;;;;;28.00;17.10;;;154.50;2252.80;;;;;;5050800;28;20021;-64
2023/04/04 09:46:38;;;;;;;39.00;19.13;;;154.50;2252.80;;;;;;5050541;28;20111;-63
2023/04/04 09:49:04;;;;;;;47.67;21.67;;;154.50;2252.80;;;;;;5051667;28;20031;-62
2023/04/04 09:51:37;;;;;;;49.03;24.40;;;154.00;2252.80;;;;;;5051290;28;20037;-63
2023/04/04 09:54:05;;;;;;;29.85;14.00;;;154.00;2252.80;;;;;;5051102;28;20033;-62
2023/04/04 09:56:37;;;;;;;77.65;37.97;;;154.10;2252.80;;;;;;5043475;28;20021;-63
2023/04/04 09:59:06;;;;;;;13.95;10.07;;;154.50;2252.80;;;;;;5046210;28;20024;-62
2023/04/04 10:01:32;;;;;;;225.40;104.43;;;154.50;2252.80;;;;;;5050910;28;20032;-63
2023/04/04 10:03:58;;;;;;;62.17;33.38;;;179.20;2252.80;;;;;;5050430;28;20036;-64
2023/04/04 10:06:25;;;;;;;19.08;12.10;;;179.20;2252.80;;;;;;5051118;28;20112;-63
2023/04/04 10:08:51;;;;;;;19.25;13.10;;;179.40;2252.80;;;;;;5050298;28;20045;-63
2023/04/04 10:11:37;;;;;;;8.07;6.70;;;179.50;2252.80;;;;;;5051233;28;20029;-63
2023/04/04 10:14:03;;;;;;;28.48;16.77;;;179.50;2252.80;;;;;;5050443;28;20017;-62
2023/04/04 10:16:33;;;;;;;9.07;6.53;;;154.50;2252.80;;;;;;5050521;28;20028;-63
2023/04/04 10:19:00;;;;;;;47.83;29.42;;;154.40;2252.80;;;;;;5050769;28;20033;-62
2023/04/04 10:21:27;;;;;;;11.63;8.93;;;154.10;2252.80;;;;;;5050817;28;20037;-62
2023/04/04 10:23:54;;;;;;;108.68;58.92;;;154.50;2252.80;;;;;;5050498;28;20021;-62
2023/04/04 10:26:21;;;;;;;15.95;11.68;;;179.40;2252.80;;;;;;5050213;28;20037;-63
2023/04/04 10:28:47;;;;;;;11.95;9.60;;;179.20;2252.80;;;;;;5024054;28;20120;-63
2023/04/04 10:31:24;;;;;;;32.58;19.40;;;179.30;2252.80;;;;;;5050802;28;20071;-63
2023/04/04 10:34:19;;;;;;;41.35;23.95;;;179.70;2252.80;;;;;;5050298;28;20032;-62
2023/04/04 10:36:49;;;;;;;10.00;6.88;;;179.50;2252.80;;;;;;5049773;28;20053;-63
2023/04/04 10:39:22;;;;;;;34.05;23.10;;;179.80;2252.80;;;;;;5050480;28;20024;-62
2023/04/04 10:41:51;;;;;;;27.58;17.08;;;179.70;2252.80;;;;;;5025676;28;20527;-63
2023/04/04 10:44:35;;;;;;;23.92;13.65;;;179.80;2252.80;;;;;;5049656;28;20080;-62
2023/04/04 10:47:21;;;;;;;74.70;66.15;;;204.90;2252.80;;;;;;5039711;28;20483;-63
2023/04/04 10:49:48;;;;;;;10.45;9.10;;;180.10;2252.80;;;;;;5049921;28;20024;-62
2023/04/04 10:52:17;;;;;;;51.30;26.85;;;204.90;2252.80;;;;;;5050201;28;20036;-62
2023/04/04 10:54:43;;;;;;;13.02;8.63;;;204.90;2252.80;;;;;;5049828;28;20036;-62
2023/04/04 10:57:11;;;;;;;11.18;8.50;;;205.00;2252.80;;;;;;5049795;28;20471;-62
2023/04/04 11:00:08;;;;;;;9.23;7.53;;;205.30;2252.80;;;;;;5049545;28;20074;-62
2023/04/04 11:02:57;;;;;;;12.18;9.80;;;205.10;2252.80;;;;;;5049849;28;20033;-62
2023/04/04 11:05:33;;;;;;;9.90;6.85;;;205.20;2252.80;;;;;;5049694;28;20031;-62
2023/04/04 11:08:04;;;;;;;41.00;25.52;;;180.00;2252.80;;;;;;5049522;28;20013;-63
2023/04/04 11:10:32;;;;;;;26.13;17.17;;;179.80;2252.80;;;;;;5049112;28;20513;-62
2023/04/04 11:13:06;;;;;;;13.93;9.18;;;179.80;2252.80;;;;;;5050027;28;20035;-62
2023/04/04 11:15:51;;;;;;;49.95;29.73;;;179.90;2252.80;;;;;;5048727;28;20374;-62
2023/04/04 11:18:19;;;;;;;9.88;8.10;;;179.50;2252.80;;;;;;5049685;28;20044;-62
2023/04/04 11:20:46;;;;;;;10.05;7.70;;;179.30;2252.80;;;;;;5049586;28;20029;-62
2023/04/04 11:23:20;;;;;;;15.82;11.95;;;154.50;2252.80;;;;;;5048819;28;20025;-62
2023/04/04 11:25:50;;;;;;;9.90;8.25;;;179.40;2252.80;;;;;;5049922;28;20459;-61
2023/04/04 11:28:28;;;;;;;22.67;15.73;;;179.20;2252.80;;;;;;5049230;28;20074;-62
2023/04/04 11:31:19;;;;;;;28.10;22.13;;;154.20;2252.80;;;;;;5049925;28;20083;-62
2023/04/04 11:34:11;;;;;;;11.27;7.65;;;154.10;2252.80;;;;;;5049313;28;20033;-62
2023/04/04 11:36:36;;;;;;;9.50;7.93;;;153.70;2252.80;;;;;;5035807;28;20049;-61
2023/04/04 11:39:34;;;;;;;11.50;10.30;;;128.80;2252.80;;;;;;5049148;28;20025;-62
2023/04/04 11:42:13;;;;;;;21.90;15.27;;;153.60;2252.80;;;;;;5046575;28;20053;-63
2023/04/04 11:45:02;;;;;;;12.15;8.65;;;153.60;2252.80;;;;;;5046496;28;20104;-63
2023/04/04 11:47:29;;;;;;;13.70;11.02;;;153.60;2252.80;;;;;;5046352;28;20103;-62
2023/04/04 11:49:56;;;;;;;12.10;9.40;;;153.60;2252.80;;;;;;5047148;28;20024;-62
2023/04/04 11:52:24;;;;;;;9.45;7.85;;;128.80;2252.80;;;;;;5046001;28;20029;-63
2023/04/04 11:54:50;;;;;;;13.32;10.75;;;128.80;2252.80;;;;;;5046663;28;20032;-62
2023/04/04 11:57:20;;;;;;;9.38;7.90;;;128.70;2252.80;;;;;;5046304;28;20021;-62
2023/04/04 11:59:47;;;;;;;9.43;7.60;;;128.50;2252.80;;;;;;5046504;28;20047;-62
2023/04/04 12:02:20;;;;;;;9.45;7.57;;;128.40;2252.80;;;;;;5046442;28;20539;-61
2023/04/04 12:04:46;;;;;;;8.95;7.28;;;128.40;2252.80;;;;;;5046628;28;20033;-64
2023/04/04 12:07:16;;;;;;;9.27;7.60;;;128.30;2252.80;;;;;;5044873;28;20044;-62
2023/04/04 12:09:42;;;;;;;9.43;7.28;;;128.20;2252.80;;;;;;5041007;28;20054;-62
2023/04/04 12:12:17;;;;;;;12.93;9.73;;;128.10;2252.80;;;;;;5026815;28;21048;-61
2023/04/04 12:14:44;;;;;;;9.90;8.07;;;103.30;2227.20;;;;;;5032134;28;20034;-61
2023/04/04 12:17:10;;;;;;;10.95;8.05;;;128.20;2252.80;;;;;;5034429;28;20030;-62